Time;durP1;ratioP1;P1;durP2;ratioP2;P2;SDS_P1;SDS_P2;PMS_P1;PMS_P2;Temp;Humidity;BMP_temperature;BMP_pressure;BME280_temperature;BME280_humidity;BME280_pressure;Samples;Min_cycle;Max_cycle;Signal;HPM_P1;HPM_P2
2023/01/07 00:01:17;;;;;;;2.90;1.30;;;14.30;40.00;;;;;;4991259;28;20524;-74
2023/01/07 00:03:45;;;;;;;2.80;1.20;;;14.20;39.40;;;;;;4990770;28;20455;-74
2023/01/07 00:06:13;;;;;;;2.80;1.20;;;14.30;38.60;;;;;;4991023;28;20437;-73
2023/01/07 00:08:42;;;;;;;2.90;1.27;;;14.30;38.90;;;;;;4990651;28;20441;-75
2023/01/07 00:11:10;;;;;;;2.90;1.20;;;14.20;39.80;;;;;;4990905;28;20483;-74
2023/01/07 00:13:36;;;;;;;2.80;1.10;;;14.50;39.60;;;;;;4989011;28;20456;-74
2023/01/07 00:16:07;;;;;;;2.70;1.00;;;14.60;38.00;;;;;;4989523;28;20499;-74
2023/01/07 00:18:34;;;;;;;3.30;1.50;;;14.20;37.60;;;;;;4992385;28;20178;-74
2023/01/07 00:21:02;;;;;;;3.00;1.20;;;14.40;37.50;;;;;;4990439;28;20488;-74
2023/01/07 00:23:29;;;;;;;2.80;1.10;;;14.30;38.00;;;;;;4983842;28;20949;-74
2023/01/07 00:26:20;;;;;;;2.77;1.10;;;14.30;38.20;;;;;;4991873;28;20471;-73
2023/01/07 00:28:47;;;;;;;2.80;1.10;;;14.20;37.50;;;;;;4991748;28;20508;-75
2023/01/07 00:31:18;;;;;;;2.90;1.20;;;14.20;35.10;;;;;;4990221;28;20938;-73
2023/01/07 00:33:52;;;;;;;2.80;1.10;;;14.50;35.00;;;;;;4989128;28;20465;-73
2023/01/07 00:36:20;;;;;;;2.90;1.10;;;14.70;36.80;;;;;;4992599;28;20449;-73
2023/01/07 00:38:46;;;;;;;2.70;1.00;;;14.10;36.20;;;;;;4992359;28;20495;-73
2023/01/07 00:41:12;;;;;;;2.87;1.13;;;14.30;38.10;;;;;;4991212;28;20944;-73
2023/01/07 00:43:38;;;;;;;2.80;1.00;;;13.90;38.40;;;;;;4988646;28;20214;-75
2023/01/07 00:46:03;;;;;;;3.00;1.30;;;14.30;36.20;;;;;;4986892;28;20552;-73
2023/01/07 00:48:29;;;;;;;2.80;1.10;;;14.50;35.60;;;;;;4986229;28;20668;-73
2023/01/07 00:50:55;;;;;;;2.90;1.20;;;14.60;36.90;;;;;;4991210;28;20182;-73
2023/01/07 00:53:21;;;;;;;2.90;1.20;;;14.60;36.60;;;;;;4989106;28;20205;-74
2023/01/07 00:55:48;;;;;;;2.90;1.20;;;14.40;37.20;;;;;;4990658;28;20440;-73
2023/01/07 00:58:17;;;;;;;2.80;1.10;;;14.50;35.40;;;;;;4984219;28;20468;-74
2023/01/07 01:00:43;;;;;;;2.90;1.20;;;14.50;35.80;;;;;;4990931;28;20536;-73
2023/01/07 01:03:10;;;;;;;2.90;1.20;;;14.80;33.80;;;;;;4988304;28;20947;-74
2023/01/07 01:05:35;;;;;;;3.20;1.30;;;14.80;32.60;;;;;;4988550;28;20186;-73
2023/01/07 01:08:01;;;;;;;2.80;1.10;;;14.80;33.00;;;;;;4991274;28;20428;-74
2023/01/07 01:10:27;;;;;;;2.90;1.20;;;14.80;35.70;;;;;;4987659;28;20650;-73
2023/01/07 01:12:52;;;;;;;2.80;1.00;;;14.30;36.40;;;;;;4991010;28;20228;-74
2023/01/07 01:15:18;;;;;;;2.80;1.10;;;14.20;36.30;;;;;;4988387;28;20800;-73
2023/01/07 01:17:44;;;;;;;2.90;1.10;;;14.20;36.30;;;;;;4991443;28;20677;-73
2023/01/07 01:20:13;;;;;;;2.80;1.10;;;14.20;36.30;;;;;;4990953;28;20441;-74
2023/01/07 01:22:39;;;;;;;2.70;1.00;;;14.00;36.10;;;;;;4991055;28;20183;-74
2023/01/07 01:25:05;;;;;;;2.87;1.23;;;14.00;36.10;;;;;;4990482;28;20464;-75
2023/01/07 01:27:31;;;;;;;2.90;1.23;;;14.10;36.20;;;;;;4994402;28;20190;-73
2023/01/07 01:29:57;;;;;;;2.80;1.10;;;14.20;36.30;;;;;;4995152;28;20424;-75
2023/01/07 01:32:24;;;;;;;2.93;1.30;;;14.00;36.90;;;;;;4992385;28;20480;-74
2023/01/07 01:34:49;;;;;;;2.90;1.20;;;13.90;36.00;;;;;;4993000;28;20465;-73
2023/01/07 01:37:15;;;;;;;3.83;1.20;;;13.90;36.40;;;;;;4993643;28;20563;-74
2023/01/07 01:39:40;;;;;;;2.90;1.20;;;13.90;36.60;;;;;;4995016;28;20186;-73
2023/01/07 01:42:11;;;;;;;2.83;1.13;;;14.20;33.70;;;;;;4993671;28;20186;-74
2023/01/07 01:44:52;;;;;;;2.80;1.10;;;14.10;33.90;;;;;;4994449;28;20201;-73
2023/01/07 01:47:24;;;;;;;2.80;1.10;;;14.10;35.20;;;;;;4992805;28;20464;-73
2023/01/07 01:50:06;;;;;;;2.90;1.13;;;14.30;31.30;;;;;;4993874;28;20428;-74
2023/01/07 01:52:38;;;;;;;2.97;1.23;;;14.40;32.20;;;;;;4990420;28;20459;-73
2023/01/07 01:55:07;;;;;;;2.80;1.03;;;14.40;32.40;;;;;;4993644;28;20925;-74
2023/01/07 01:57:35;;;;;;;2.80;1.10;;;13.80;34.50;;;;;;4994493;28;20910;-74
2023/01/07 02:00:02;;;;;;;3.00;1.30;;;13.90;34.10;;;;;;4994718;28;20504;-73
2023/01/07 02:02:37;;;;;;;2.80;1.10;;;14.30;31.70;;;;;;4994025;28;20425;-73
2023/01/07 02:05:04;;;;;;;2.90;1.20;;;14.40;32.80;;;;;;4995548;28;20959;-73
2023/01/07 02:07:29;;;;;;;2.90;1.20;;;14.50;31.00;;;;;;4994334;28;20851;-74
2023/01/07 02:10:12;;;;;;;2.90;1.20;;;14.60;30.80;;;;;;4994656;28;20451;-74
2023/01/07 02:13:04;;;;;;;2.80;1.10;;;14.50;32.80;;;;;;4994346;28;20688;-74
2023/01/07 02:15:44;;;;;;;2.80;1.10;;;14.40;34.20;;;;;;4990381;28;20441;-73
2023/01/07 02:18:12;;;;;;;2.90;1.20;;;14.30;33.20;;;;;;4993056;28;20516;-74
2023/01/07 02:21:05;;;;;;;2.87;1.20;;;14.20;34.40;;;;;;4993976;28;20417;-73
2023/01/07 02:24:01;;;;;;;2.90;1.30;;;14.00;35.20;;;;;;4988095;28;20464;-74
2023/01/07 02:27:04;;;;;;;2.93;1.20;;;14.10;35.70;;;;;;4992845;28;20436;-74
2023/01/07 02:29:43;;;;;;;2.80;1.00;;;14.30;33.00;;;;;;4986415;28;20428;-73
2023/01/07 02:32:33;;;;;;;2.80;1.10;;;14.40;32.30;;;;;;4992813;28;20523;-74
2023/01/07 02:35:04;;;;;;;2.87;1.10;;;14.50;32.30;;;;;;4992302;28;20472;-73
2023/01/07 02:37:52;;;;;;;2.83;1.10;;;14.30;32.20;;;;;;4984915;28;20498;-73
2023/01/07 02:40:25;;;;;;;2.80;1.10;;;13.80;33.40;;;;;;4993781;28;20412;-74
2023/01/07 02:42:54;;;;;;;2.77;1.00;;;13.80;34.50;;;;;;4990759;28;20468;-74
2023/01/07 02:45:28;;;;;;;2.90;1.10;;;13.90;34.30;;;;;;4991257;28;20472;-74
2023/01/07 02:48:04;;;;;;;2.80;1.10;;;13.90;33.70;;;;;;4993650;28;20520;-74
2023/01/07 02:50:30;;;;;;;2.87;1.10;;;13.70;34.70;;;;;;4987256;28;20507;-73
2023/01/07 02:52:56;;;;;;;2.90;1.20;;;13.70;34.70;;;;;;4987080;28;20446;-74
2023/01/07 02:55:43;;;;;;;2.83;1.13;;;14.20;34.10;;;;;;4991599;28;20452;-73
2023/01/07 02:58:11;;;;;;;2.80;1.10;;;13.60;34.40;;;;;;4990664;28;20206;-74
2023/01/07 03:00:56;;;;;;;2.90;1.13;;;13.70;34.50;;;;;;4993372;28;20533;-75
2023/01/07 03:03:49;;;;;;;2.87;1.10;;;13.70;34.10;;;;;;4989318;28;20829;-74
2023/01/07 03:06:22;;;;;;;2.80;1.10;;;13.90;33.40;;;;;;4991062;28;20448;-74
2023/01/07 03:08:59;;;;;;;2.90;1.23;;;14.10;33.10;;;;;;4993311;28;20928;-74
2023/01/07 03:11:31;;;;;;;2.83;1.10;;;14.20;32.90;;;;;;4991978;28;20421;-74
2023/01/07 03:14:08;;;;;;;2.80;1.03;;;14.10;32.60;;;;;;4991732;28;20457;-74
2023/01/07 03:16:41;;;;;;;2.90;1.27;;;14.00;33.10;;;;;;4987905;28;21130;-73
2023/01/07 03:19:12;;;;;;;2.83;1.10;;;13.90;33.70;;;;;;4992933;28;20454;-73
2023/01/07 03:21:38;;;;;;;2.90;1.20;;;14.00;33.40;;;;;;4992555;28;20992;-74
2023/01/07 03:24:07;;;;;;;3.00;1.20;;;14.20;34.60;;;;;;4992151;28;20453;-74
2023/01/07 03:26:38;;;;;;;2.77;1.00;;;13.70;33.50;;;;;;4990143;28;20436;-74
2023/01/07 03:29:05;;;;;;;4.27;1.97;;;13.70;33.30;;;;;;4992418;28;20499;-74
2023/01/07 03:31:31;;;;;;;2.90;1.20;;;13.80;33.30;;;;;;4995588;28;20467;-73
2023/01/07 03:34:20;;;;;;;2.87;1.13;;;14.20;34.20;;;;;;4989269;28;20832;-73
2023/01/07 03:36:52;;;;;;;2.77;1.10;;;13.70;33.90;;;;;;4991637;28;20489;-73
2023/01/07 03:39:20;;;;;;;3.87;1.30;;;13.70;34.30;;;;;;4992874;28;20413;-74
2023/01/07 03:44:35;;;;;;;2.87;1.10;;;13.30;34.80;;;;;;4990596;28;20860;-74
2023/01/07 03:47:01;;;;;;;2.80;1.07;;;13.40;34.00;;;;;;4990202;28;20441;-73
2023/01/07 03:49:27;;;;;;;2.87;1.10;;;13.10;33.80;;;;;;4992622;28;20443;-74
2023/01/07 03:51:53;;;;;;;2.90;1.13;;;13.50;33.50;;;;;;4992596;28;20897;-74
2023/01/07 03:54:20;;;;;;;2.90;1.10;;;13.80;33.60;;;;;;4991531;28;20608;-74
2023/01/07 03:56:45;;;;;;;2.83;1.10;;;13.90;32.90;;;;;;4989726;28;20979;-73
2023/01/07 03:59:11;;;;;;;3.50;1.63;;;14.00;33.40;;;;;;4992270;28;20452;-74
2023/01/07 04:01:37;;;;;;;2.90;1.20;;;13.60;33.30;;;;;;4992410;28;20637;-75
2023/01/07 04:04:03;;;;;;;2.80;1.10;;;13.70;33.10;;;;;;4990756;28;20197;-74
2023/01/07 04:06:29;;;;;;;3.00;1.20;;;13.80;32.90;;;;;;4989691;28;20738;-73
2023/01/07 04:08:54;;;;;;;2.87;1.13;;;14.00;32.70;;;;;;4991585;28;20437;-74
2023/01/07 04:11:20;;;;;;;2.80;1.10;;;14.00;33.00;;;;;;4992167;28;20947;-74
2023/01/07 04:13:45;;;;;;;2.83;1.10;;;14.30;33.90;;;;;;4992169;28;20196;-74
2023/01/07 04:16:11;;;;;;;3.20;1.30;;;13.90;35.20;;;;;;4991010;28;20320;-74
2023/01/07 04:18:37;;;;;;;2.87;1.10;;;14.20;33.50;;;;;;4994152;28;20225;-73
2023/01/07 04:21:02;;;;;;;2.80;1.00;;;14.20;33.20;;;;;;4994801;28;20178;-73
2023/01/07 04:23:28;;;;;;;2.73;1.03;;;13.90;34.20;;;;;;4992906;28;20632;-74
2023/01/07 04:25:54;;;;;;;2.77;1.00;;;14.10;34.70;;;;;;4992765;28;20646;-74
2023/01/07 04:28:19;;;;;;;2.73;1.10;;;14.10;35.00;;;;;;4990550;28;20182;-74
2023/01/07 04:30:45;;;;;;;2.83;1.17;;;13.80;34.30;;;;;;4991924;28;20248;-73
2023/01/07 04:33:10;;;;;;;3.17;1.37;;;13.40;35.50;;;;;;4990239;28;20194;-73
2023/01/07 04:35:38;;;;;;;2.77;1.00;;;13.30;35.40;;;;;;4991254;28;20182;-73
2023/01/07 04:38:03;;;;;;;2.83;1.10;;;13.40;35.50;;;;;;4992094;28;20198;-75
2023/01/07 04:40:29;;;;;;;3.10;1.30;;;12.90;35.60;;;;;;4989919;28;20444;-73
2023/01/07 04:42:55;;;;;;;2.90;1.20;;;12.70;35.80;;;;;;4992008;28;20206;-74
2023/01/07 04:45:21;;;;;;;2.90;1.20;;;12.90;35.00;;;;;;4989531;28;20567;-73
2023/01/07 04:47:46;;;;;;;2.80;1.20;;;13.10;35.20;;;;;;4991987;28;20178;-73
2023/01/07 04:50:12;;;;;;;2.90;1.20;;;13.10;35.30;;;;;;4990122;28;21022;-74
2023/01/07 04:52:38;;;;;;;2.80;1.07;;;13.00;35.10;;;;;;4991821;28;20196;-74
2023/01/07 04:55:04;;;;;;;2.83;1.20;;;13.50;35.20;;;;;;4990673;28;20842;-73
2023/01/07 04:57:30;;;;;;;2.90;1.10;;;13.30;34.80;;;;;;4992919;28;20821;-73
2023/01/07 04:59:55;;;;;;;2.80;1.10;;;13.00;34.80;;;;;;4993710;28;20446;-74
2023/01/07 05:02:21;;;;;;;2.80;1.10;;;13.10;35.20;;;;;;4995614;28;20189;-73
2023/01/07 05:04:47;;;;;;;2.90;1.10;;;13.50;35.60;;;;;;4994240;28;20544;-74
2023/01/07 05:07:12;;;;;;;3.10;1.30;;;13.30;34.60;;;;;;4993744;28;20532;-75
2023/01/07 05:09:38;;;;;;;2.90;1.13;;;13.60;33.60;;;;;;4995695;28;20194;-73
2023/01/07 05:12:04;;;;;;;2.83;1.10;;;13.60;32.90;;;;;;4992339;28;20277;-73
2023/01/07 05:14:29;;;;;;;2.80;1.10;;;13.80;33.90;;;;;;4987646;28;20288;-73
2023/01/07 05:16:55;;;;;;;3.00;1.30;;;13.90;33.30;;;;;;4994754;28;20476;-74
2023/01/07 05:19:20;;;;;;;2.80;1.10;;;14.00;32.30;;;;;;4994333;28;20189;-73
2023/01/07 05:21:46;;;;;;;3.10;1.30;;;13.90;32.60;;;;;;4993537;28;20205;-75
2023/01/07 05:24:12;;;;;;;2.80;1.10;;;13.70;33.00;;;;;;4995085;28;20579;-74
2023/01/07 05:26:37;;;;;;;2.87;1.10;;;14.00;31.90;;;;;;4995425;28;20178;-74
2023/01/07 05:29:03;;;;;;;2.90;1.17;;;13.90;32.00;;;;;;4993468;28;20545;-74
2023/01/07 05:31:29;;;;;;;2.90;1.20;;;13.90;32.50;;;;;;4995028;28;20178;-75
2023/01/07 05:33:54;;;;;;;2.80;1.10;;;14.10;32.90;;;;;;4992488;28;20220;-74
2023/01/07 05:36:20;;;;;;;2.80;1.10;;;13.80;33.20;;;;;;4995104;28;20213;-73
2023/01/07 05:38:45;;;;;;;5.77;1.83;;;13.70;33.30;;;;;;4992578;28;20182;-74
2023/01/07 05:41:11;;;;;;;2.90;1.10;;;13.70;34.30;;;;;;4992352;28;20190;-74
2023/01/07 05:43:37;;;;;;;2.90;1.13;;;14.10;33.90;;;;;;4993858;28;20264;-73
2023/01/07 05:46:03;;;;;;;3.10;1.23;;;13.80;32.50;;;;;;4992208;28;20456;-74
2023/01/07 05:48:29;;;;;;;2.80;1.00;;;13.70;32.80;;;;;;4993698;28;20440;-75
2023/01/07 05:50:54;;;;;;;2.80;1.10;;;13.90;33.30;;;;;;4993844;28;20467;-73
2023/01/07 05:53:20;;;;;;;3.00;1.20;;;13.90;32.80;;;;;;4994036;28;20344;-74
2023/01/07 05:55:46;;;;;;;2.90;1.20;;;13.80;32.40;;;;;;4993095;28;20596;-74
2023/01/07 05:58:11;;;;;;;3.10;1.33;;;13.80;33.10;;;;;;4993349;28;20202;-73
2023/01/07 06:00:37;;;;;;;2.87;1.10;;;13.70;33.70;;;;;;4992575;28;20178;-74
2023/01/07 06:03:04;;;;;;;3.00;1.20;;;13.60;34.30;;;;;;4993843;28;20228;-74
2023/01/07 06:05:30;;;;;;;3.10;1.40;;;13.70;34.20;;;;;;4993992;28;20270;-73
2023/01/07 06:07:55;;;;;;;2.83;1.10;;;13.70;34.20;;;;;;4993458;28;20532;-73
2023/01/07 06:10:21;;;;;;;3.00;1.20;;;13.60;33.90;;;;;;4992627;28;20197;-74
2023/01/07 06:12:46;;;;;;;3.00;1.30;;;13.90;33.60;;;;;;4993312;28;20182;-74
2023/01/07 06:15:12;;;;;;;2.90;1.20;;;13.70;33.20;;;;;;4993877;28;20660;-74
2023/01/07 06:17:38;;;;;;;2.90;1.20;;;13.90;33.90;;;;;;4992593;28;20221;-74
2023/01/07 06:20:04;;;;;;;2.77;1.10;;;13.80;34.60;;;;;;4994350;28;20202;-73
2023/01/07 06:22:30;;;;;;;2.80;1.13;;;13.70;33.90;;;;;;4992724;28;20265;-74
2023/01/07 06:24:56;;;;;;;2.90;1.20;;;13.80;33.90;;;;;;4997913;28;20479;-73
2023/01/07 06:27:21;;;;;;;2.80;1.13;;;14.00;34.10;;;;;;4992383;28;20692;-74
2023/01/07 06:29:47;;;;;;;2.80;1.00;;;13.90;33.60;;;;;;4993611;28;20190;-74
2023/01/07 06:32:12;;;;;;;2.83;1.10;;;13.70;35.20;;;;;;4992213;28;20193;-74
2023/01/07 06:34:38;;;;;;;2.80;1.17;;;13.80;34.20;;;;;;4992746;28;20229;-74
2023/01/07 06:37:03;;;;;;;2.70;1.10;;;13.60;35.10;;;;;;4994157;28;20292;-74
2023/01/07 06:39:29;;;;;;;3.00;1.30;;;13.70;35.60;;;;;;4993162;28;20186;-74
2023/01/07 06:41:55;;;;;;;2.90;1.10;;;13.80;34.00;;;;;;4993261;28;20178;-75
2023/01/07 06:44:20;;;;;;;2.80;1.10;;;13.80;33.40;;;;;;4992813;28;20216;-74
2023/01/07 06:46:46;;;;;;;2.70;1.07;;;13.80;33.10;;;;;;4993808;28;20178;-74
2023/01/07 06:49:11;;;;;;;2.80;1.10;;;14.00;33.50;;;;;;4991357;28;20186;-74
2023/01/07 06:51:37;;;;;;;2.73;1.00;;;14.30;33.90;;;;;;4993204;28;20272;-74
2023/01/07 06:54:03;;;;;;;2.80;1.20;;;13.90;33.50;;;;;;4992137;28;20201;-74
2023/01/07 06:56:28;;;;;;;2.80;1.10;;;13.80;33.20;;;;;;4993564;28;20188;-74
2023/01/07 06:58:54;;;;;;;3.40;1.40;;;14.10;33.40;;;;;;4991748;28;20767;-74
2023/01/07 07:01:19;;;;;;;2.83;1.10;;;13.90;34.70;;;;;;4988149;28;20642;-74
2023/01/07 07:03:45;;;;;;;2.80;1.10;;;13.70;34.80;;;;;;4992030;28;20201;-73
2023/01/07 07:06:11;;;;;;;3.63;1.50;;;13.80;34.30;;;;;;4992148;28;20185;-74
2023/01/07 07:08:36;;;;;;;2.77;1.10;;;14.10;35.40;;;;;;4993602;28;20614;-74
2023/01/07 07:11:02;;;;;;;2.77;1.10;;;13.70;34.70;;;;;;4991489;28;20277;-74
2023/01/07 07:13:27;;;;;;;2.80;1.10;;;13.80;34.70;;;;;;4984947;28;20629;-74
2023/01/07 07:15:53;;;;;;;2.80;1.20;;;13.50;35.60;;;;;;4992031;28;20597;-74
2023/01/07 07:18:20;;;;;;;2.80;1.10;;;13.30;36.10;;;;;;4992714;28;20301;-74
2023/01/07 07:20:46;;;;;;;2.70;1.10;;;13.40;35.50;;;;;;4990456;28;20193;-73
2023/01/07 07:23:12;;;;;;;2.78;1.10;;;13.60;35.70;;;;;;4991926;28;20445;-74
2023/01/07 07:25:37;;;;;;;2.80;1.10;;;13.60;35.70;;;;;;4993088;28;20228;-73
2023/01/07 07:28:03;;;;;;;2.90;1.30;;;13.40;37.00;;;;;;4992245;28;20236;-74
2023/01/07 07:30:29;;;;;;;2.80;1.20;;;13.20;36.20;;;;;;4993176;28;20642;-73
2023/01/07 07:32:55;;;;;;;3.37;1.30;;;13.10;36.60;;;;;;4990003;28;20483;-75
2023/01/07 07:35:20;;;;;;;2.80;1.10;;;13.10;36.00;;;;;;4992684;28;20460;-73
2023/01/07 07:37:46;;;;;;;2.90;1.23;;;13.10;36.50;;;;;;4990905;28;20687;-74
2023/01/07 07:40:12;;;;;;;2.90;1.30;;;13.60;35.60;;;;;;4992700;28;20597;-73
2023/01/07 07:42:38;;;;;;;2.80;1.10;;;13.50;34.30;;;;;;4990485;28;20186;-73
2023/01/07 07:45:05;;;;;;;2.90;1.20;;;13.40;34.30;;;;;;4992713;28;20235;-74
2023/01/07 07:47:31;;;;;;;2.80;1.10;;;13.50;34.40;;;;;;4990352;28;20849;-73
2023/01/07 07:49:57;;;;;;;2.90;1.20;;;13.50;34.50;;;;;;4988948;28;20441;-78
2023/01/07 07:52:22;;;;;;;3.20;1.60;;;13.70;35.00;;;;;;4988312;28;20542;-78
2023/01/07 07:54:48;;;;;;;2.83;1.30;;;13.50;34.90;;;;;;4993134;28;20240;-78
2023/01/07 07:57:14;;;;;;;2.77;1.10;;;13.60;35.30;;;;;;4994014;28;20201;-78
2023/01/07 07:59:39;;;;;;;2.83;1.20;;;13.90;35.20;;;;;;4991602;28;20182;-78
2023/01/07 08:02:05;;;;;;;2.90;1.30;;;13.90;33.80;;;;;;4991932;28;20186;-78
2023/01/07 08:04:33;;;;;;;2.90;1.30;;;14.00;34.80;;;;;;4996949;28;20737;-78
2023/01/07 08:07:00;;;;;;;2.80;1.10;;;13.70;34.30;;;;;;4990586;28;20198;-78
2023/01/07 08:09:26;;;;;;;2.80;1.20;;;13.70;36.60;;;;;;4991552;28;20465;-72
2023/01/07 08:11:51;;;;;;;2.80;1.10;;;13.90;36.00;;;;;;4989425;28;20475;-73
2023/01/07 08:14:17;;;;;;;2.80;1.20;;;13.60;35.30;;;;;;4987195;28;20883;-74
2023/01/07 08:16:42;;;;;;;2.90;1.20;;;13.60;35.70;;;;;;4987638;28;20178;-73
2023/01/07 08:19:09;;;;;;;2.90;1.30;;;13.70;35.10;;;;;;4990924;28;20689;-74
2023/01/07 08:21:35;;;;;;;2.80;1.20;;;14.10;33.80;;;;;;4986435;28;20642;-75
2023/01/07 08:24:00;;;;;;;2.80;1.20;;;14.00;33.10;;;;;;4989118;28;20603;-74
2023/01/07 08:26:26;;;;;;;2.77;1.10;;;13.60;34.00;;;;;;4991093;28;20558;-74
2023/01/07 08:28:52;;;;;;;2.80;1.17;;;13.80;34.70;;;;;;4991555;28;20205;-75
2023/01/07 08:31:17;;;;;;;2.80;1.10;;;13.90;34.00;;;;;;4992189;28;20190;-74
2023/01/07 08:33:43;;;;;;;2.90;1.10;;;14.40;34.20;;;;;;4992380;28;20293;-74
2023/01/07 08:36:09;;;;;;;2.90;1.20;;;13.90;33.60;;;;;;4993187;28;20189;-75
2023/01/07 08:38:35;;;;;;;2.90;1.20;;;14.10;32.80;;;;;;4996093;28;20484;-74
2023/01/07 08:41:00;;;;;;;3.20;1.40;;;14.10;34.10;;;;;;4996788;28;20177;-76
2023/01/07 08:43:26;;;;;;;3.00;1.30;;;14.30;32.30;;;;;;4996151;28;20316;-74
2023/01/07 08:45:52;;;;;;;3.00;1.40;;;14.20;32.80;;;;;;4993086;28;20557;-75
2023/01/07 08:48:19;;;;;;;3.07;1.40;;;14.10;32.70;;;;;;4991142;28;20452;-76
2023/01/07 08:50:50;;;;;;;2.80;1.20;;;14.40;31.90;;;;;;4993409;28;20616;-75
2023/01/07 08:53:16;;;;;;;3.10;1.30;;;14.40;31.80;;;;;;4994301;28;20499;-74
2023/01/07 08:55:42;;;;;;;3.20;1.43;;;14.50;32.30;;;;;;4993127;28;20499;-75
2023/01/07 08:58:07;;;;;;;2.90;1.20;;;14.50;31.90;;;;;;4994252;28;20473;-73
2023/01/07 09:00:33;;;;;;;3.00;1.40;;;14.40;32.10;;;;;;4994303;28;20195;-74
2023/01/07 09:02:59;;;;;;;3.20;1.50;;;14.90;31.80;;;;;;4996086;28;20182;-73
2023/01/07 09:05:24;;;;;;;3.30;1.40;;;13.80;33.30;;;;;;4990676;28;20259;-74
2023/01/07 09:07:54;;;;;;;2.90;1.20;;;13.90;32.30;;;;;;4993497;28;20262;-74
2023/01/07 09:10:20;;;;;;;2.80;1.10;;;13.40;32.40;;;;;;4996885;28;20193;-77
2023/01/07 09:12:46;;;;;;;2.90;1.40;;;13.90;33.60;;;;;;4996818;28;20445;-73
2023/01/07 09:15:11;;;;;;;3.00;1.30;;;13.80;32.50;;;;;;4995990;28;20466;-73
2023/01/07 09:17:37;;;;;;;3.10;1.30;;;14.10;31.40;;;;;;4994387;28;20207;-80
2023/01/07 09:20:03;;;;;;;3.77;1.30;;;14.20;31.10;;;;;;5000798;28;20193;-78
2023/01/07 09:22:33;;;;;;;3.00;1.30;;;14.20;31.30;;;;;;5014800;28;20258;-81
2023/01/07 09:24:59;;;;;;;2.97;1.27;;;14.10;31.50;;;;;;5005269;28;20467;-77
2023/01/07 09:27:28;;;;;;;2.90;1.30;;;14.10;30.80;;;;;;4994384;28;20446;-77
2023/01/07 09:29:57;;;;;;;3.00;1.30;;;14.20;30.50;;;;;;4999504;28;20230;-78
2023/01/07 09:32:25;;;;;;;3.30;1.40;;;14.30;30.40;;;;;;4996714;28;20436;-77
2023/01/07 09:34:51;;;;;;;2.90;1.20;;;14.30;30.70;;;;;;5003053;28;20481;-78
2023/01/07 09:37:16;;;;;;;3.10;1.30;;;14.10;31.00;;;;;;4994246;28;20981;-79
2023/01/07 09:39:42;;;;;;;3.07;1.40;;;14.30;31.40;;;;;;4999052;28;20187;-77
2023/01/07 09:42:28;;;;;;;3.10;1.37;;;14.00;31.60;;;;;;4996347;28;20188;-73
2023/01/07 09:44:54;;;;;;;2.80;1.10;;;14.30;31.20;;;;;;4992644;28;20276;-74
2023/01/07 09:47:23;;;;;;;2.97;1.30;;;14.30;30.50;;;;;;4994511;28;20447;-76
2023/01/07 09:49:54;;;;;;;3.00;1.30;;;14.10;31.10;;;;;;4992380;28;20584;-73
2023/01/07 09:52:36;;;;;;;2.90;1.20;;;14.20;30.90;;;;;;4993714;28;20444;-74
2023/01/07 09:55:15;;;;;;;2.93;1.23;;;13.80;31.20;;;;;;4994497;28;20465;-73
2023/01/07 09:57:40;;;;;;;3.10;1.33;;;13.90;31.20;;;;;;4994409;28;20529;-75
2023/01/07 10:00:15;;;;;;;3.00;1.20;;;14.10;31.20;;;;;;4990739;28;20875;-75
2023/01/07 10:02:45;;;;;;;2.90;1.20;;;14.20;30.30;;;;;;4992710;28;20275;-74
2023/01/07 10:05:34;;;;;;;3.00;1.37;;;14.10;31.90;;;;;;4991683;28;20463;-74
2023/01/07 10:08:07;;;;;;;2.90;1.27;;;14.10;31.40;;;;;;4989249;28;20534;-74
2023/01/07 10:11:01;;;;;;;2.77;1.17;;;14.10;31.10;;;;;;4990598;28;20452;-74
2023/01/07 10:14:02;;;;;;;3.30;1.33;;;14.60;30.40;;;;;;4988165;28;20520;-79
2023/01/07 10:17:00;;;;;;;2.90;1.20;;;14.40;30.10;;;;;;4981444;28;20953;-74
2023/01/07 10:19:46;;;;;;;2.80;1.10;;;13.80;31.90;;;;;;4991639;28;20443;-74
2023/01/07 10:22:22;;;;;;;2.80;1.10;;;13.60;32.80;;;;;;4988778;28;20509;-73
2023/01/07 10:24:54;;;;;;;2.83;1.20;;;13.60;32.50;;;;;;4992867;28;20491;-73
2023/01/07 10:27:33;;;;;;;3.03;1.30;;;13.20;32.50;;;;;;4992284;28;20516;-74
2023/01/07 10:30:03;;;;;;;3.40;1.40;;;12.70;34.20;;;;;;4994008;28;20443;-74
2023/01/07 10:32:35;;;;;;;3.00;1.20;;;12.80;34.30;;;;;;4994204;28;20455;-74
2023/01/07 10:35:01;;;;;;;3.00;1.30;;;12.80;35.00;;;;;;4990668;28;20474;-74
2023/01/07 10:37:36;;;;;;;3.60;1.40;;;13.00;33.60;;;;;;4994669;28;20468;-74
2023/01/07 10:40:23;;;;;;;3.50;1.40;;;12.80;34.40;;;;;;4997318;28;20485;-74
2023/01/07 10:43:15;;;;;;;3.00;1.20;;;12.50;34.70;;;;;;5000578;28;20429;-74
2023/01/07 10:45:54;;;;;;;3.00;1.23;;;13.10;33.70;;;;;;5001669;28;20809;-74
2023/01/07 10:48:37;;;;;;;3.80;1.30;;;13.20;33.40;;;;;;4995361;28;20432;-74
2023/01/07 10:51:23;;;;;;;3.00;1.20;;;12.70;34.80;;;;;;4997758;28;20409;-75
2023/01/07 10:54:01;;;;;;;2.80;1.10;;;12.90;33.40;;;;;;4997418;28;20454;-73
2023/01/07 10:57:00;;;;;;;3.20;1.50;;;13.30;32.90;;;;;;4994955;28;20440;-73
2023/01/07 10:59:26;;;;;;;3.10;1.33;;;13.30;32.70;;;;;;4993395;28;20484;-73
2023/01/07 11:01:57;;;;;;;2.90;1.20;;;13.00;34.50;;;;;;4993946;28;20429;-74
2023/01/07 11:04:23;;;;;;;3.00;1.20;;;12.40;35.00;;;;;;4991970;28;20432;-73
2023/01/07 11:07:02;;;;;;;3.60;1.40;;;12.60;34.80;;;;;;4992636;28;20419;-75
2023/01/07 11:09:42;;;;;;;2.90;1.17;;;13.00;33.50;;;;;;4993698;28;20408;-74
2023/01/07 11:12:36;;;;;;;2.90;1.10;;;12.90;33.70;;;;;;4991994;28;20437;-74
2023/01/07 11:15:13;;;;;;;2.90;1.20;;;12.90;33.70;;;;;;4991490;28;20454;-75
2023/01/07 11:17:53;;;;;;;3.00;1.20;;;12.70;34.90;;;;;;4986715;28;20874;-74
2023/01/07 11:20:43;;;;;;;3.10;1.40;;;13.10;34.20;;;;;;4993291;28;20399;-74
2023/01/07 11:23:36;;;;;;;3.00;1.30;;;13.20;34.70;;;;;;4972588;28;20475;-73
2023/01/07 11:26:06;;;;;;;3.30;1.40;;;13.70;32.70;;;;;;4981727;28;20515;-73
2023/01/07 11:28:33;;;;;;;2.93;1.20;;;13.90;31.90;;;;;;4985581;28;20516;-74
2023/01/07 11:31:00;;;;;;;3.00;1.40;;;14.10;32.50;;;;;;4993085;28;20414;-73
2023/01/07 11:33:45;;;;;;;3.60;1.83;;;13.80;32.80;;;;;;4992338;28;20561;-73
2023/01/07 11:36:11;;;;;;;2.90;1.17;;;13.70;32.70;;;;;;4992386;28;20536;-73
2023/01/07 11:38:38;;;;;;;3.30;1.50;;;14.10;32.10;;;;;;4991083;28;20998;-73
2023/01/07 11:41:06;;;;;;;6.03;2.30;;;13.80;32.80;;;;;;4992786;28;20416;-73
2023/01/07 11:43:37;;;;;;;3.20;1.47;;;13.50;34.50;;;;;;4993652;28;20531;-73
2023/01/07 11:46:04;;;;;;;3.27;1.57;;;13.30;33.80;;;;;;4997300;28;20397;-74
2023/01/07 11:48:33;;;;;;;2.90;1.17;;;13.10;35.10;;;;;;4996787;28;20804;-73
2023/01/07 11:51:09;;;;;;;3.93;1.30;;;13.50;34.00;;;;;;4992633;28;20456;-73
2023/01/07 11:53:38;;;;;;;3.20;1.40;;;13.60;33.80;;;;;;4992645;28;20440;-74
2023/01/07 11:56:13;;;;;;;3.50;1.53;;;14.10;34.00;;;;;;4992526;28;20416;-72
2023/01/07 11:58:44;;;;;;;4.03;1.73;;;14.10;33.10;;;;;;4990677;28;20588;-73
2023/01/07 12:01:11;;;;;;;2.80;1.17;;;14.40;31.70;;;;;;4992618;28;20806;-73
2023/01/07 12:03:42;;;;;;;3.47;1.60;;;14.30;31.40;;;;;;4990608;28;20946;-72
2023/01/07 12:06:10;;;;;;;4.00;1.80;;;14.50;30.80;;;;;;4991593;28;20437;-73
2023/01/07 12:08:39;;;;;;;2.80;1.10;;;15.20;30.20;;;;;;4992794;28;20469;-73
2023/01/07 12:11:07;;;;;;;3.30;1.27;;;16.30;28.40;;;;;;4993145;28;20439;-73
2023/01/07 12:13:34;;;;;;;2.90;1.20;;;15.60;29.00;;;;;;4992169;28;20432;-73
2023/01/07 12:16:09;;;;;;;2.90;1.20;;;15.40;29.30;;;;;;4992344;28;20436;-73
2023/01/07 12:18:54;;;;;;;2.97;1.27;;;14.60;30.30;;;;;;4990035;28;20484;-73
2023/01/07 12:21:45;;;;;;;2.93;1.20;;;14.50;31.10;;;;;;4990898;28;20508;-73
2023/01/07 12:24:47;;;;;;;3.30;1.40;;;15.00;29.80;;;;;;4992220;28;20437;-73
2023/01/07 12:27:56;;;;;;;3.20;1.60;;;15.00;30.30;;;;;;4992320;28;20423;-73
2023/01/07 12:30:29;;;;;;;3.00;1.23;;;15.20;30.20;;;;;;4945335;28;20445;-74
2023/01/07 12:33:13;;;;;;;2.97;1.30;;;15.60;29.10;;;;;;4950761;28;21085;-77
2023/01/07 12:35:42;;;;;;;2.97;1.20;;;16.00;28.70;;;;;;4960934;28;20441;-77
2023/01/07 12:38:34;;;;;;;3.37;1.63;;;15.00;29.30;;;;;;4953934;28;20511;-77
2023/01/07 12:41:04;;;;;;;3.10;1.33;;;15.00;29.40;;;;;;4961615;28;20438;-78
2023/01/07 12:43:54;;;;;;;3.10;1.33;;;14.80;30.00;;;;;;4955772;28;20532;-77
2023/01/07 12:46:22;;;;;;;3.30;1.50;;;15.10;29.30;;;;;;4935197;29;20942;-76
2023/01/07 12:49:01;;;;;;;3.10;1.30;;;15.20;29.60;;;;;;4955963;28;20441;-76
2023/01/07 12:51:57;;;;;;;3.10;1.30;;;15.40;28.70;;;;;;4951975;28;20448;-78
2023/01/07 12:55:13;;;;;;;3.07;1.20;;;15.80;28.30;;;;;;4937031;28;20461;-78
2023/01/07 12:57:40;;;;;;;3.20;1.20;;;16.10;28.00;;;;;;4857040;29;20478;-75
2023/01/07 13:00:20;;;;;;;3.30;1.30;;;15.50;28.40;;;;;;4855418;29;20540;-79
2023/01/07 13:03:09;;;;;;;3.60;1.50;;;15.70;28.20;;;;;;4855145;29;20481;-75
2023/01/07 13:05:45;;;;;;;3.20;1.20;;;15.60;28.50;;;;;;4867602;29;20502;-72
2023/01/07 13:08:29;;;;;;;3.13;1.20;;;16.00;28.90;;;;;;4892191;29;20598;-73